createdAt,value
2017-12-26T00:00:25.114Z,1005.31
2017-12-26T00:01:25.552Z,1005.34
2017-12-26T00:02:47.125Z,1005.32
2017-12-26T00:03:26.400Z,1005.30
2017-12-26T00:04:26.869Z,1005.26
2017-12-26T00:05:27.240Z,1005.26
2017-12-26T00:06:27.668Z,1005.22
2017-12-26T00:07:28.111Z,1005.21
2017-12-26T00:08:49.655Z,1005.16
2017-12-26T00:09:29.033Z,1005.18
2017-12-26T00:10:29.387Z,1005.19
2017-12-26T00:11:29.847Z,1005.20
2017-12-26T00:12:30.185Z,1005.16
2017-12-26T00:13:30.628Z,1005.10
2017-12-26T00:14:52.183Z,1005.10
2017-12-26T00:15:31.444Z,1005.06
2017-12-26T00:16:31.876Z,1005.03
2017-12-26T00:17:32.308Z,1005.06
2017-12-26T00:18:32.705Z,1005.03
2017-12-26T00:19:33.191Z,1004.99
2017-12-26T00:20:54.748Z,1004.96
2017-12-26T00:21:33.979Z,1004.93
2017-12-26T00:22:34.414Z,1004.85
2017-12-26T00:23:34.822Z,1004.89
2017-12-26T00:24:35.257Z,1004.87
2017-12-26T00:25:35.678Z,1004.78
2017-12-26T00:26:57.240Z,1004.76
2017-12-26T00:27:36.520Z,1004.81
2017-12-26T00:28:36.952Z,1004.80
2017-12-26T00:29:37.368Z,1004.81
2017-12-26T00:30:37.846Z,1004.80
2017-12-26T00:31:38.244Z,1004.81
2017-12-26T00:32:59.807Z,1004.79
2017-12-26T00:33:39.127Z,1004.74
2017-12-26T00:34:39.538Z,1004.72
2017-12-26T00:35:39.881Z,1004.67
2017-12-26T00:36:40.357Z,1004.64
2017-12-26T00:37:40.782Z,1004.69
2017-12-26T00:39:02.342Z,1004.65
2017-12-26T00:39:41.599Z,1004.65
2017-12-26T00:40:42.018Z,1004.61
2017-12-26T00:41:42.397Z,1004.61
2017-12-26T00:42:42.835Z,1004.64
2017-12-26T00:43:43.234Z,1004.60
2017-12-26T00:45:04.815Z,1004.67
2017-12-26T00:45:44.076Z,1004.68
2017-12-26T00:46:44.493Z,1004.68
2017-12-26T00:47:44.917Z,1004.70
2017-12-26T00:48:45.348Z,1004.70
2017-12-26T00:49:45.756Z,1004.65
2017-12-26T00:51:07.341Z,1004.66
2017-12-26T00:51:46.604Z,1004.68
2017-12-26T00:52:47.016Z,1004.65
2017-12-26T00:53:47.435Z,1004.61
2017-12-26T00:54:47.863Z,1004.57
2017-12-26T00:55:48.289Z,1004.55
2017-12-26T00:57:09.868Z,1004.49
2017-12-26T00:57:49.153Z,1004.49
2017-12-26T00:58:49.545Z,1004.46
2017-12-26T00:59:49.977Z,1004.47
2017-12-26T01:00:50.388Z,1004.45
2017-12-26T01:01:50.810Z,1004.42
2017-12-26T01:03:12.391Z,1004.42
2017-12-26T01:03:51.655Z,1004.41
2017-12-26T01:04:52.089Z,1004.40
2017-12-26T01:05:52.495Z,1004.38
2017-12-26T01:06:52.917Z,1004.33
2017-12-26T01:07:53.338Z,1004.30
2017-12-26T01:09:14.916Z,1004.30
2017-12-26T01:09:54.180Z,1004.32
2017-12-26T01:10:54.610Z,1004.32
2017-12-26T01:11:55.035Z,1004.27
2017-12-26T01:12:55.450Z,1004.28
2017-12-26T01:13:55.863Z,1004.26
2017-12-26T01:15:17.445Z,1004.18
2017-12-26T01:15:56.705Z,1004.16
2017-12-26T01:16:57.128Z,1004.22
2017-12-26T01:17:57.547Z,1004.17
2017-12-26T01:18:57.965Z,1004.16
2017-12-26T01:19:58.390Z,1004.14
2017-12-26T01:21:19.978Z,1004.16
2017-12-26T01:21:59.232Z,1004.15
2017-12-26T01:22:59.655Z,1004.14
2017-12-26T01:24:00.080Z,1004.11
2017-12-26T01:25:00.496Z,1004.10
2017-12-26T01:26:00.915Z,1004.12
2017-12-26T01:27:22.492Z,1004.13
2017-12-26T01:28:01.751Z,1004.11
2017-12-26T01:29:02.176Z,1004.09
2017-12-26T01:30:02.595Z,1004.05
2017-12-26T01:31:03.010Z,1004.04
2017-12-26T01:32:03.454Z,1004.04
2017-12-26T01:33:25.016Z,1004.00
2017-12-26T01:34:04.287Z,1004.04
2017-12-26T01:35:04.716Z,1003.97
2017-12-26T01:36:05.127Z,1003.95
2017-12-26T01:37:05.544Z,1003.90
2017-12-26T01:38:05.964Z,1003.85
2017-12-26T01:39:27.540Z,1003.83
2017-12-26T01:40:06.802Z,1003.86
2017-12-26T01:41:07.221Z,1003.82
2017-12-26T01:42:07.650Z,1003.84
2017-12-26T01:43:08.079Z,1003.78
2017-12-26T01:44:08.495Z,1003.74
2017-12-26T01:45:30.070Z,1003.73
2017-12-26T01:46:09.328Z,1003.71
2017-12-26T01:47:09.746Z,1003.73
2017-12-26T01:48:10.171Z,1003.73
2017-12-26T01:49:10.592Z,1003.71
2017-12-26T01:50:11.030Z,1003.68
2017-12-26T01:51:32.592Z,1003.68
2017-12-26T01:52:11.856Z,1003.68
2017-12-26T01:53:12.271Z,1003.67
2017-12-26T01:54:12.700Z,1003.67
2017-12-26T01:55:13.112Z,1003.65
2017-12-26T01:56:13.533Z,1003.67
2017-12-26T01:57:35.108Z,1003.64
2017-12-26T01:58:14.374Z,1003.67
2017-12-26T01:59:14.789Z,1003.62
2017-12-26T02:00:15.416Z,1003.62
2017-12-26T02:01:15.629Z,1003.60
2017-12-26T02:02:16.059Z,1003.54
2017-12-26T02:03:37.631Z,1003.57
2017-12-26T02:04:16.946Z,1003.56
2017-12-26T02:05:17.317Z,1003.56
2017-12-26T02:06:17.738Z,1003.57
2017-12-26T02:07:18.163Z,1003.54
2017-12-26T02:08:18.578Z,1003.49
2017-12-26T02:09:40.161Z,1003.46
2017-12-26T02:10:19.419Z,1003.41
2017-12-26T02:11:19.838Z,1003.39
2017-12-26T02:12:20.278Z,1003.36
2017-12-26T02:13:20.683Z,1003.34
2017-12-26T02:14:21.105Z,1003.37
2017-12-26T02:15:42.676Z,1003.33
2017-12-26T02:16:21.944Z,1003.30
2017-12-26T02:17:22.362Z,1003.26
2017-12-26T02:18:22.786Z,1003.28
2017-12-26T02:19:23.208Z,1003.27
2017-12-26T02:20:23.628Z,1003.25
2017-12-26T02:21:45.209Z,1003.19
2017-12-26T02:22:24.468Z,1003.15
2017-12-26T02:23:24.888Z,1003.15
2017-12-26T02:24:25.311Z,1003.18
2017-12-26T02:25:25.733Z,1003.15
2017-12-26T02:26:26.151Z,1003.12
2017-12-26T02:27:47.728Z,1003.10
2017-12-26T02:28:26.989Z,1003.08
2017-12-26T02:29:27.408Z,1003.12
2017-12-26T02:30:27.834Z,1003.11
2017-12-26T02:31:28.251Z,1003.13
2017-12-26T02:32:28.665Z,1003.09
2017-12-26T02:33:50.267Z,1003.05
2017-12-26T02:34:29.523Z,1003.05
2017-12-26T02:35:29.931Z,1003.03
2017-12-26T02:36:30.350Z,1002.98
2017-12-26T02:37:30.775Z,1003.02
2017-12-26T02:38:31.198Z,1002.97
2017-12-26T02:39:52.770Z,1002.96
2017-12-26T02:40:32.030Z,1002.96
2017-12-26T02:41:32.455Z,1002.95
2017-12-26T02:42:32.869Z,1002.88
2017-12-26T02:43:33.304Z,1002.85
2017-12-26T02:44:33.714Z,1002.85
2017-12-26T02:45:55.294Z,1002.77
2017-12-26T02:46:34.562Z,1002.73
2017-12-26T02:47:34.979Z,1002.71
2017-12-26T02:48:35.400Z,1002.69
2017-12-26T02:49:35.817Z,1002.63
2017-12-26T02:50:36.235Z,1002.63
2017-12-26T02:51:57.817Z,1002.57
2017-12-26T02:52:37.076Z,1002.57
2017-12-26T02:53:37.504Z,1002.59
2017-12-26T02:54:37.932Z,1002.56
2017-12-26T02:55:38.336Z,1002.58
2017-12-26T02:56:38.758Z,1002.56
2017-12-26T02:58:00.334Z,1002.65
2017-12-26T02:58:39.607Z,1002.60
2017-12-26T02:59:40.053Z,1002.63
2017-12-26T03:00:40.491Z,1002.57
2017-12-26T03:01:40.864Z,1002.56
2017-12-26T03:02:41.281Z,1002.51
2017-12-26T03:04:02.863Z,1002.53
2017-12-26T03:04:42.126Z,1002.53
2017-12-26T03:05:42.544Z,1002.58
2017-12-26T03:06:42.961Z,1002.53
2017-12-26T03:07:43.380Z,1002.52
2017-12-26T03:08:43.805Z,1002.54
2017-12-26T03:10:05.385Z,1002.57
2017-12-26T03:10:44.658Z,1002.53
2017-12-26T03:11:45.069Z,1002.55
2017-12-26T03:12:45.545Z,1002.55
2017-12-26T03:13:45.904Z,1002.54
2017-12-26T03:14:46.448Z,1002.51
2017-12-26T03:16:07.903Z,1002.51
2017-12-26T03:16:47.165Z,1002.46
2017-12-26T03:17:47.593Z,1002.46
2017-12-26T03:18:48.018Z,1002.43
2017-12-26T03:19:48.437Z,1002.40
2017-12-26T03:20:48.849Z,1002.40
2017-12-26T03:22:10.444Z,1002.34
2017-12-26T03:22:49.684Z,1002.31
2017-12-26T03:23:50.104Z,1002.32
2017-12-26T03:24:50.529Z,1002.29
2017-12-26T03:25:50.941Z,1002.29
2017-12-26T03:26:51.374Z,1002.26
2017-12-26T03:28:12.951Z,1002.26
2017-12-26T03:28:52.218Z,1002.30
2017-12-26T03:29:52.633Z,1002.28
2017-12-26T03:30:53.050Z,1002.24
2017-12-26T03:31:53.467Z,1002.25
2017-12-26T03:32:53.886Z,1002.29
2017-12-26T03:34:15.467Z,1002.27
2017-12-26T03:34:54.737Z,1002.26
2017-12-26T03:35:55.158Z,1002.22
2017-12-26T03:36:55.585Z,1002.16
2017-12-26T03:37:55.999Z,1002.15
2017-12-26T03:38:56.416Z,1002.09
2017-12-26T03:40:17.997Z,1002.08
2017-12-26T03:40:57.247Z,1002.01
2017-12-26T03:41:57.663Z,1002.02
2017-12-26T03:42:58.082Z,1002.00
2017-12-26T03:43:58.510Z,1002.04
2017-12-26T03:44:58.933Z,1001.98
2017-12-26T03:46:20.499Z,1002.02
2017-12-26T03:46:59.774Z,1002.02
2017-12-26T03:48:00.191Z,1002.04
2017-12-26T03:49:00.618Z,1001.98
2017-12-26T03:50:01.029Z,1001.92
2017-12-26T03:51:01.443Z,1001.95
2017-12-26T03:52:23.022Z,1001.90
2017-12-26T03:53:02.283Z,1001.91
2017-12-26T03:54:02.699Z,1001.86
2017-12-26T03:55:03.123Z,1001.80
2017-12-26T03:56:03.557Z,1001.84
2017-12-26T03:57:03.983Z,1001.80
2017-12-26T03:58:25.556Z,1001.78
2017-12-26T03:59:04.816Z,1001.74
2017-12-26T04:00:05.229Z,1001.76
2017-12-26T04:01:05.645Z,1001.73
2017-12-26T04:02:06.064Z,1001.71
2017-12-26T04:03:06.482Z,1001.69
2017-12-26T04:04:28.079Z,1001.63
2017-12-26T04:05:07.332Z,1001.64
2017-12-26T04:06:07.756Z,1001.64
2017-12-26T04:07:08.170Z,1001.64
2017-12-26T04:08:08.586Z,1001.64
2017-12-26T04:09:09.023Z,1001.66
2017-12-26T04:10:30.585Z,1001.65
2017-12-26T04:11:09.849Z,1001.61
2017-12-26T04:12:10.263Z,1001.60
2017-12-26T04:13:10.686Z,1001.59
2017-12-26T04:14:11.099Z,1001.57
2017-12-26T04:15:11.538Z,1001.56
2017-12-26T04:16:33.109Z,1001.55
2017-12-26T04:17:12.369Z,1001.54
2017-12-26T04:18:12.793Z,1001.49
2017-12-26T04:19:13.208Z,1001.48
2017-12-26T04:20:13.629Z,1001.39
2017-12-26T04:21:14.044Z,1001.39
2017-12-26T04:22:35.625Z,1001.34
2017-12-26T04:23:14.888Z,1001.29
2017-12-26T04:24:15.388Z,1001.26
2017-12-26T04:25:15.732Z,1001.28
2017-12-26T04:26:16.144Z,1001.27
2017-12-26T04:27:16.571Z,1001.23
2017-12-26T04:28:38.148Z,1001.21
2017-12-26T04:29:17.405Z,1001.21
2017-12-26T04:30:17.832Z,1001.18
2017-12-26T04:31:18.241Z,1001.13
2017-12-26T04:32:18.670Z,1001.14
2017-12-26T04:33:19.080Z,1001.09
2017-12-26T04:34:40.672Z,1001.08
2017-12-26T04:35:19.932Z,1001.07
2017-12-26T04:36:20.386Z,1001.04
2017-12-26T04:37:20.773Z,1001.08
2017-12-26T04:38:21.185Z,1001.10
2017-12-26T04:39:21.611Z,1001.07
2017-12-26T04:40:43.184Z,1001.00
2017-12-26T04:41:22.446Z,1000.98
2017-12-26T04:42:22.863Z,1001.03
2017-12-26T04:43:23.281Z,1000.96
2017-12-26T04:45:56.746Z,1000.95
2017-12-26T04:46:57.155Z,1000.88
2017-12-26T04:47:57.577Z,1000.90
2017-12-26T04:48:57.994Z,1000.82
2017-12-26T04:49:58.413Z,1000.88
2017-12-26T04:50:58.832Z,1000.88
2017-12-26T04:51:59.261Z,1000.93
2017-12-26T04:52:59.680Z,1000.90
2017-12-26T04:54:00.094Z,1000.94
2017-12-26T04:55:00.512Z,1000.92
2017-12-26T04:56:00.935Z,1000.93
2017-12-26T04:57:01.358Z,1000.86
2017-12-26T04:58:01.780Z,1000.89
2017-12-26T04:59:02.204Z,1000.88
2017-12-26T05:00:02.615Z,1000.86
2017-12-26T05:01:03.038Z,1000.83
2017-12-26T05:02:03.454Z,1000.76
2017-12-26T05:03:03.883Z,1000.78
2017-12-26T05:04:04.295Z,1000.76
2017-12-26T05:05:04.722Z,1000.75
2017-12-26T05:06:05.133Z,1000.71
2017-12-26T05:07:05.551Z,1000.70
2017-12-26T05:08:05.976Z,1000.67
2017-12-26T05:09:06.393Z,1000.69
2017-12-26T05:10:06.816Z,1000.74
2017-12-26T05:11:07.242Z,1000.78
2017-12-26T05:12:07.656Z,1000.75
2017-12-26T05:13:08.078Z,1000.74
2017-12-26T05:14:08.494Z,1000.75
2017-12-26T05:15:08.916Z,1000.74
2017-12-26T05:16:09.335Z,1000.74
2017-12-26T05:17:09.764Z,1000.76
2017-12-26T05:18:10.181Z,1000.71
2017-12-26T05:19:10.596Z,1000.72
2017-12-26T05:20:11.019Z,1000.80
2017-12-26T05:21:11.444Z,1000.78
2017-12-26T05:22:11.864Z,1000.79
2017-12-26T05:23:12.281Z,1000.78
2017-12-26T05:24:12.697Z,1000.75
2017-12-26T05:25:13.121Z,1000.77
2017-12-26T05:26:13.567Z,1000.73
2017-12-26T05:27:13.958Z,1000.71
2017-12-26T05:28:14.382Z,1000.63
2017-12-26T05:29:14.803Z,1000.59
2017-12-26T05:30:15.230Z,1000.54
2017-12-26T05:31:15.643Z,1000.50
2017-12-26T05:32:16.061Z,1000.54
2017-12-26T05:33:16.482Z,1000.54
2017-12-26T05:34:16.898Z,1000.54
2017-12-26T05:35:17.325Z,1000.49
2017-12-26T05:36:17.741Z,1000.55
2017-12-26T05:37:18.159Z,1000.53
2017-12-26T05:38:18.581Z,1000.48
2017-12-26T05:39:19.003Z,1000.45
2017-12-26T05:40:19.423Z,1000.49
2017-12-26T05:41:19.844Z,1000.42
2017-12-26T05:42:20.396Z,1000.45
2017-12-26T05:43:20.675Z,1000.41
2017-12-26T05:44:21.102Z,1000.46
2017-12-26T05:45:21.529Z,1000.37
2017-12-26T05:46:21.944Z,1000.37
2017-12-26T05:47:22.364Z,1000.36
2017-12-26T05:48:22.782Z,1000.33
2017-12-26T05:49:23.203Z,1000.34
2017-12-26T05:50:23.622Z,1000.30
2017-12-26T05:51:24.044Z,1000.34
2017-12-26T05:52:24.470Z,1000.34
2017-12-26T05:53:24.884Z,1000.27
2017-12-26T05:54:25.306Z,1000.29
2017-12-26T05:55:25.722Z,1000.33
2017-12-26T05:56:26.142Z,1000.32
2017-12-26T05:57:26.566Z,1000.29
2017-12-26T05:58:26.984Z,1000.22
2017-12-26T05:59:27.419Z,1000.20
2017-12-26T06:00:27.821Z,1000.16
2017-12-26T06:01:28.246Z,1000.19
2017-12-26T06:02:28.670Z,1000.16
2017-12-26T06:03:29.089Z,1000.20
2017-12-26T06:04:29.505Z,1000.20
2017-12-26T06:05:29.929Z,1000.12
2017-12-26T06:06:30.344Z,1000.13
2017-12-26T06:07:30.768Z,1000.21
2017-12-26T06:08:31.184Z,1000.17
2017-12-26T06:09:31.611Z,1000.13
2017-12-26T06:10:32.026Z,1000.13
2017-12-26T06:11:32.449Z,1000.10
2017-12-26T06:12:32.867Z,1000.10
2017-12-26T06:13:33.287Z,1000.10
2017-12-26T06:14:33.707Z,1000.06
2017-12-26T06:15:34.123Z,1000.00
2017-12-26T06:16:34.550Z,1000.03
2017-12-26T06:17:34.970Z,1000.03
2017-12-26T06:18:35.412Z,999.96
2017-12-26T06:19:35.807Z,1000.00
2017-12-26T06:20:36.228Z,999.97
2017-12-26T06:21:36.648Z,999.95
2017-12-26T06:22:37.074Z,999.97
2017-12-26T06:23:37.490Z,999.93
2017-12-26T06:24:37.921Z,999.88
2017-12-26T06:25:38.332Z,999.91
2017-12-26T06:26:38.749Z,999.92
2017-12-26T06:27:39.174Z,999.92
2017-12-26T06:28:39.587Z,999.90
2017-12-26T06:29:40.010Z,999.89
2017-12-26T06:30:40.497Z,999.89
2017-12-26T06:31:40.852Z,999.88
2017-12-26T06:32:41.283Z,999.88
2017-12-26T06:33:41.690Z,999.89
2017-12-26T06:34:42.114Z,999.82
2017-12-26T06:35:42.534Z,999.83
2017-12-26T06:36:42.960Z,999.82
2017-12-26T06:37:43.370Z,999.80
2017-12-26T06:38:43.792Z,999.78
2017-12-26T06:39:44.215Z,999.79
2017-12-26T06:40:44.633Z,999.82
2017-12-26T06:41:45.055Z,999.81
2017-12-26T06:42:45.567Z,999.76
2017-12-26T06:43:45.899Z,999.79
2017-12-26T06:44:46.329Z,999.81
2017-12-26T06:45:46.743Z,999.85
2017-12-26T06:46:47.155Z,999.89
2017-12-26T06:47:47.573Z,999.87
2017-12-26T06:48:47.998Z,999.80
2017-12-26T06:49:48.415Z,999.77
2017-12-26T06:50:48.836Z,999.76
2017-12-26T06:51:49.260Z,999.79
2017-12-26T06:52:49.677Z,999.77
2017-12-26T06:53:50.097Z,999.76
2017-12-26T06:54:50.517Z,999.73
2017-12-26T06:55:50.936Z,999.77
2017-12-26T06:56:51.358Z,999.71
2017-12-26T06:57:51.778Z,999.68
2017-12-26T06:58:52.199Z,999.72
2017-12-26T06:59:52.620Z,999.68
2017-12-26T07:00:53.139Z,999.67
2017-12-26T07:01:53.466Z,999.67
2017-12-26T07:02:53.886Z,999.69
2017-12-26T07:03:54.302Z,999.64
2017-12-26T07:04:54.722Z,999.63
2017-12-26T07:05:55.142Z,999.67
2017-12-26T07:06:55.562Z,999.69
2017-12-26T07:07:55.981Z,999.67
2017-12-26T07:08:56.403Z,999.62
2017-12-26T07:09:56.831Z,999.60
2017-12-26T07:10:57.248Z,999.60
2017-12-26T07:11:57.683Z,999.58
2017-12-26T07:12:58.093Z,999.56
2017-12-26T07:13:58.510Z,999.57
2017-12-26T07:14:58.927Z,999.58
2017-12-26T07:15:59.346Z,999.50
2017-12-26T07:16:59.767Z,999.53
2017-12-26T07:18:00.186Z,999.52
2017-12-26T07:19:00.607Z,999.54
2017-12-26T07:20:01.023Z,999.59
2017-12-26T07:21:01.446Z,999.52
2017-12-26T07:22:01.869Z,999.49
2017-12-26T07:23:02.285Z,999.53
2017-12-26T07:24:02.709Z,999.58
2017-12-26T07:25:03.129Z,999.57
2017-12-26T07:26:03.547Z,999.57
2017-12-26T07:27:03.971Z,999.60
2017-12-26T07:28:04.401Z,999.53
2017-12-26T07:29:04.813Z,999.48
2017-12-26T07:30:05.236Z,999.47
2017-12-26T07:31:05.647Z,999.53
2017-12-26T07:32:06.075Z,999.50
2017-12-26T07:33:06.490Z,999.51
2017-12-26T07:34:06.963Z,999.49
2017-12-26T07:35:07.331Z,999.49
2017-12-26T07:36:07.752Z,999.55
2017-12-26T07:37:08.184Z,999.50
2017-12-26T07:38:08.593Z,999.45
2017-12-26T07:39:09.014Z,999.45
2017-12-26T07:40:09.434Z,999.42
2017-12-26T07:41:09.869Z,999.41
2017-12-26T07:42:10.276Z,999.39
2017-12-26T07:43:10.694Z,999.35
2017-12-26T07:44:11.116Z,999.33
2017-12-26T07:45:11.545Z,999.39
2017-12-26T07:46:11.956Z,999.41
2017-12-26T07:47:12.375Z,999.36
2017-12-26T07:48:12.800Z,999.31
2017-12-26T07:49:13.216Z,999.30
2017-12-26T07:50:13.635Z,999.28
2017-12-26T07:51:14.058Z,999.32
2017-12-26T07:52:14.480Z,999.33
2017-12-26T07:53:14.900Z,999.32
2017-12-26T07:54:15.326Z,999.36
2017-12-26T07:55:15.742Z,999.34
2017-12-26T07:56:16.214Z,999.31
2017-12-26T07:57:16.584Z,999.27
2017-12-26T07:58:17.000Z,999.31
2017-12-26T07:59:17.419Z,999.29
2017-12-26T08:00:17.846Z,999.25
2017-12-26T08:01:18.262Z,999.26
2017-12-26T08:02:18.684Z,999.23
2017-12-26T08:03:19.132Z,999.23
2017-12-26T08:04:19.532Z,999.21
2017-12-26T08:05:19.945Z,999.20
2017-12-26T08:06:20.436Z,999.23
2017-12-26T08:07:20.786Z,999.25
2017-12-26T08:08:21.205Z,999.19
2017-12-26T08:09:21.653Z,999.21
2017-12-26T08:10:22.048Z,999.17
2017-12-26T08:11:22.477Z,999.21
2017-12-26T08:12:22.907Z,999.20
2017-12-26T08:13:23.311Z,999.17
2017-12-26T08:14:23.729Z,999.16
2017-12-26T08:15:24.163Z,999.18
2017-12-26T08:16:24.608Z,999.13
2017-12-26T08:17:25.004Z,999.09
2017-12-26T08:18:25.413Z,999.21
2017-12-26T08:19:25.837Z,999.13
2017-12-26T08:20:26.256Z,999.06
2017-12-26T08:21:26.702Z,999.13
2017-12-26T08:22:27.096Z,999.12
2017-12-26T08:23:27.514Z,999.07
2017-12-26T08:24:27.936Z,999.06
2017-12-26T08:25:28.361Z,999.08
2017-12-26T08:26:28.782Z,999.09
2017-12-26T08:27:29.200Z,999.04
2017-12-26T08:28:29.622Z,999.06
2017-12-26T08:29:30.043Z,999.07
2017-12-26T08:30:30.467Z,999.07
2017-12-26T08:31:30.909Z,999.00
2017-12-26T08:32:31.308Z,999.06
2017-12-26T08:33:31.728Z,999.09
2017-12-26T08:34:32.150Z,999.03
2017-12-26T08:35:32.571Z,999.04
2017-12-26T08:36:32.987Z,999.07
2017-12-26T08:37:33.416Z,999.08
2017-12-26T08:38:33.830Z,999.01
2017-12-26T08:39:34.257Z,999.03
2017-12-26T08:40:34.686Z,999.02
2017-12-26T08:41:35.092Z,999.03
2017-12-26T08:42:35.512Z,998.98
2017-12-26T08:43:35.938Z,999.00
2017-12-26T08:44:36.354Z,998.99
2017-12-26T08:45:36.777Z,999.02
2017-12-26T08:46:37.199Z,999.00
2017-12-26T08:47:37.617Z,999.00
2017-12-26T08:48:38.045Z,999.04
2017-12-26T08:49:38.464Z,999.06
2017-12-26T08:50:38.887Z,998.99
2017-12-26T08:51:39.312Z,998.99
2017-12-26T08:52:39.726Z,998.96
2017-12-26T08:53:40.198Z,998.93
2017-12-26T08:54:40.569Z,998.94
2017-12-26T08:55:40.990Z,998.95
2017-12-26T08:56:41.412Z,998.97
2017-12-26T08:57:41.835Z,998.92
2017-12-26T08:58:42.259Z,998.98
2017-12-26T08:59:42.678Z,998.91
2017-12-26T09:00:43.105Z,998.85
2017-12-26T09:01:43.526Z,998.86
2017-12-26T09:02:43.940Z,998.85
2017-12-26T09:03:44.385Z,998.90
2017-12-26T09:04:44.783Z,998.88
2017-12-26T09:05:45.207Z,998.93
2017-12-26T09:06:45.626Z,998.92
2017-12-26T09:07:46.056Z,998.87
2017-12-26T09:08:46.470Z,998.89
2017-12-26T09:09:46.893Z,998.87
2017-12-26T09:10:47.333Z,998.85
2017-12-26T09:11:47.740Z,998.87
2017-12-26T09:12:48.165Z,998.84
2017-12-26T09:13:48.602Z,998.84
2017-12-26T09:14:49.015Z,998.80
2017-12-26T09:15:49.441Z,998.76
2017-12-26T09:16:49.855Z,998.81
2017-12-26T09:17:50.276Z,998.74
2017-12-26T09:18:50.690Z,998.76
2017-12-26T09:19:51.134Z,998.74
2017-12-26T09:20:51.549Z,998.71
2017-12-26T09:21:51.959Z,998.74
2017-12-26T09:22:52.380Z,998.70
2017-12-26T09:23:52.797Z,998.71
2017-12-26T09:24:53.228Z,998.69
2017-12-26T09:25:53.649Z,998.66
2017-12-26T09:26:54.066Z,998.64
2017-12-26T09:27:54.492Z,998.60
2017-12-26T09:28:54.903Z,998.57
2017-12-26T09:29:55.328Z,998.55
2017-12-26T09:30:55.750Z,998.54
2017-12-26T09:31:56.214Z,998.54
2017-12-26T09:32:56.617Z,998.55
2017-12-26T09:33:57.042Z,998.60
2017-12-26T09:34:57.446Z,998.54
2017-12-26T09:35:57.929Z,998.58
2017-12-26T09:36:58.279Z,998.56
2017-12-26T09:37:58.712Z,998.57
2017-12-26T09:38:59.130Z,998.54
2017-12-26T09:39:59.565Z,998.53
2017-12-26T09:40:59.968Z,998.51
2017-12-26T09:42:00.391Z,998.48
2017-12-26T09:43:00.816Z,998.49
2017-12-26T09:44:01.242Z,998.45
2017-12-26T09:45:01.674Z,998.44
2017-12-26T09:46:02.103Z,998.42
2017-12-26T09:47:02.510Z,998.37
2017-12-26T09:48:02.936Z,998.38
2017-12-26T09:49:03.353Z,998.37
2017-12-26T09:50:03.781Z,998.40
2017-12-26T09:51:04.198Z,998.38
2017-12-26T09:52:04.636Z,998.32
2017-12-26T09:53:05.045Z,998.29
2017-12-26T09:54:05.460Z,998.26
2017-12-26T09:55:05.886Z,998.27
2017-12-26T09:56:06.308Z,998.21
2017-12-26T09:57:06.720Z,998.21
2017-12-26T09:58:07.146Z,998.18
2017-12-26T09:59:07.584Z,998.18
2017-12-26T10:00:07.998Z,998.16
2017-12-26T10:01:08.417Z,998.22
2017-12-26T10:02:08.846Z,998.21
2017-12-26T10:03:09.260Z,998.16
2017-12-26T10:04:09.681Z,998.18
2017-12-26T10:05:10.103Z,998.10
2017-12-26T10:06:10.527Z,998.08
2017-12-26T10:07:10.965Z,997.97
2017-12-26T10:08:11.375Z,998.05
2017-12-26T10:09:11.816Z,998.03
2017-12-26T10:10:12.273Z,997.91
2017-12-26T10:11:12.678Z,997.92
2017-12-26T10:12:13.085Z,997.93
2017-12-26T10:13:13.499Z,997.90
2017-12-26T10:14:13.924Z,997.87
2017-12-26T10:15:14.363Z,997.88
2017-12-26T10:16:14.779Z,997.89
2017-12-26T10:17:15.206Z,997.86
2017-12-26T10:18:15.639Z,997.81
2017-12-26T10:19:16.102Z,997.78
2017-12-26T10:20:16.486Z,997.74
2017-12-26T10:21:17.029Z,997.65
2017-12-26T10:22:17.345Z,997.71
2017-12-26T10:23:17.772Z,997.67
2017-12-26T10:24:18.218Z,997.70
2017-12-26T10:25:18.631Z,997.61
2017-12-26T10:26:19.061Z,997.61
2017-12-26T10:27:19.532Z,997.56
2017-12-26T10:28:19.921Z,997.51
2017-12-26T10:29:20.360Z,997.53
2017-12-26T10:30:20.784Z,997.50
2017-12-26T10:31:21.227Z,997.49
2017-12-26T10:32:21.661Z,997.51
2017-12-26T10:33:22.069Z,997.56
2017-12-26T10:34:22.508Z,997.41
2017-12-26T10:35:22.928Z,997.44
2017-12-26T10:36:23.356Z,997.43
2017-12-26T10:37:23.783Z,997.40
2017-12-26T10:38:24.212Z,997.36
2017-12-26T10:39:24.639Z,997.35
2017-12-26T10:40:25.077Z,997.25
2017-12-26T10:41:25.497Z,997.19
2017-12-26T10:42:25.922Z,997.23
2017-12-26T10:43:26.356Z,997.20
2017-12-26T10:44:26.778Z,997.18
2017-12-26T10:45:27.215Z,997.20
2017-12-26T10:46:27.635Z,997.22
2017-12-26T10:47:28.064Z,997.10
2017-12-26T10:48:28.498Z,997.09
2017-12-26T10:49:28.923Z,997.05
2017-12-26T10:50:29.351Z,997.11
2017-12-26T10:51:29.807Z,997.08
2017-12-26T10:52:30.216Z,997.01
2017-12-26T10:53:30.646Z,996.95
2017-12-26T10:54:31.078Z,996.96
2017-12-26T10:55:31.529Z,997.03
2017-12-26T10:56:31.940Z,996.92
2017-12-26T10:57:32.367Z,996.91
2017-12-26T10:58:32.801Z,996.90
2017-12-26T10:59:33.231Z,997.00
2017-12-26T11:00:33.668Z,996.99
2017-12-26T11:01:34.099Z,997.00
2017-12-26T11:02:34.577Z,996.92
2017-12-26T11:03:34.963Z,996.85
2017-12-26T11:04:35.392Z,996.83
2017-12-26T11:05:35.828Z,996.81
2017-12-26T11:06:36.258Z,996.70
2017-12-26T11:07:36.694Z,996.77
2017-12-26T11:08:37.143Z,996.73
2017-12-26T11:09:37.559Z,996.76
2017-12-26T11:10:38.003Z,996.68
2017-12-26T11:11:38.428Z,996.72
2017-12-26T11:12:38.865Z,996.70
2017-12-26T11:13:39.296Z,996.71
2017-12-26T11:14:39.729Z,996.60
2017-12-26T11:15:40.165Z,996.61
2017-12-26T11:16:40.615Z,996.66
2017-12-26T11:17:41.035Z,996.70
2017-12-26T11:18:41.470Z,996.75
2017-12-26T11:19:41.904Z,996.69
2017-12-26T11:20:42.342Z,996.76
2017-12-26T11:21:42.771Z,996.74
2017-12-26T11:22:43.220Z,996.80
2017-12-26T11:23:43.642Z,996.75
2017-12-26T11:24:44.075Z,996.77
2017-12-26T11:25:44.511Z,996.79
2017-12-26T11:26:44.948Z,996.72
2017-12-26T11:27:45.388Z,996.71
2017-12-26T11:28:45.817Z,996.63
2017-12-26T11:29:46.253Z,996.66
2017-12-26T11:30:46.685Z,996.63
2017-12-26T11:31:47.123Z,996.64
2017-12-26T11:32:47.557Z,996.56
2017-12-26T11:33:48.007Z,996.60
2017-12-26T11:34:48.436Z,996.56
2017-12-26T11:35:48.863Z,996.53
2017-12-26T11:36:49.300Z,996.47
2017-12-26T11:37:49.734Z,996.47
2017-12-26T11:38:50.171Z,996.48
2017-12-26T11:39:50.604Z,996.48
2017-12-26T11:40:51.047Z,996.45
2017-12-26T11:41:51.477Z,996.49
2017-12-26T11:42:51.914Z,996.32
2017-12-26T11:43:52.352Z,996.36
2017-12-26T11:44:52.783Z,996.37
2017-12-26T11:45:53.217Z,996.32
2017-12-26T11:46:53.661Z,996.34
2017-12-26T11:47:54.093Z,996.33
2017-12-26T11:48:54.540Z,996.35
2017-12-26T11:49:54.962Z,996.39
2017-12-26T11:50:55.399Z,996.31
2017-12-26T11:51:55.839Z,996.36
2017-12-26T11:52:56.269Z,996.37
2017-12-26T11:53:56.705Z,996.41
2017-12-26T11:54:57.139Z,996.31
2017-12-26T11:55:57.570Z,996.27
2017-12-26T11:56:57.999Z,996.29
2017-12-26T11:57:58.437Z,996.40
2017-12-26T11:58:58.871Z,996.40
2017-12-26T11:59:59.307Z,996.37
2017-12-26T12:00:59.732Z,996.32
2017-12-26T12:02:00.159Z,996.32
2017-12-26T12:03:00.596Z,996.25
2017-12-26T12:04:01.021Z,996.23
2017-12-26T12:05:01.450Z,996.26
2017-12-26T12:06:01.882Z,996.20
2017-12-26T12:07:02.310Z,996.23
2017-12-26T12:08:02.746Z,996.14
2017-12-26T12:09:03.175Z,996.15
2017-12-26T12:10:03.619Z,996.18
2017-12-26T12:11:04.027Z,996.13
2017-12-26T12:12:04.457Z,996.14
2017-12-26T12:13:04.881Z,996.15
2017-12-26T12:14:05.329Z,996.07
2017-12-26T12:15:05.741Z,996.03
2017-12-26T12:16:06.166Z,996.02
2017-12-26T12:17:06.596Z,996.07
2017-12-26T12:18:07.074Z,996.10
2017-12-26T12:19:07.455Z,996.09
2017-12-26T12:20:07.879Z,996.05
2017-12-26T12:21:08.308Z,996.04
2017-12-26T12:22:08.733Z,996.02
2017-12-26T12:23:09.164Z,995.99